Hlavní strana
METAR-TAF:

METAR-TAF

Letiště :

Salak

Maroua, Kamerun

zeměpisná šířka: 10-27N, zeměpisná délka: 014-15E, výška: 423 m

Aktuální stav počasí

Zpráva byla vytvořena před 2 hodinami a 12 minutami, v 18:00 UTC
Východoseverovýchodní vítr 5 kt
Teplota 26°C
Vlhkost vzduchu 30%
Tlak 1011 hPa
Viditelnost 10 km a více
Žádná oblačnost pod 1500 m, nevyskytují se cumulonimby.

METAR: FKKL 051800Z 07005KT CAVOK 26/07 Q1011

Čas: 21:12 (20:12 UTC)

Předpověď počasí

Zpráva byla vytvořena před 15 hodinami a 12 minutami, v 05:00 UTC
Předpověď platná od 05 v 06 UTC do 05 v 18 UTC
Východní vítr 8 kt
Viditelnost 10 km a více
Žádná oblačnost pod 1500 m, nevyskytují se cumulonimby.

TAF: FKKL 050500Z 0506/0518 08008KT CAVOK

Stav a předpovědi počasí z více než 4 000 letišť (zprávy METAR a TAF).

Červené a žluté tečky na mapě představují dostupné meteorologické stanice.

Když kurzor umístíte na tečku, zobrazí se název stanice.

Pak kliknutím zobrazíte stav a předpověď počasí.

Chcete-li změnit mapu, kliknutím na zelené tlačítko se znaménkem +mapu přiblížíte, kliknutím na zelené tlačítko se znaménkem – mapu oddálíte a kliknutím na zelené šipky přejdete na sousední mapy.


METAR-TAF: